sensor_id;sensor_type;location;lat;lon;timestamp;P1;durP1;ratioP1;P2;durP2;ratioP2
56405;SDS011;42305;51.444;-2.584;2022-08-19T00:01:47;2.35;;;2.35;;
56405;SDS011;42305;51.444;-2.584;2022-08-19T00:04:14;2.28;;;2.28;;
56405;SDS011;42305;51.444;-2.584;2022-08-19T00:09:26;2.50;;;2.50;;
56405;SDS011;42305;51.444;-2.584;2022-08-19T00:11:52;3.67;;;3.47;;
56405;SDS011;42305;51.444;-2.584;2022-08-19T00:14:20;2.50;;;2.50;;
56405;SDS011;42305;51.444;-2.584;2022-08-19T00:16:48;2.13;;;2.13;;
56405;SDS011;42305;51.444;-2.584;2022-08-19T00:19:16;2.75;;;2.67;;
56405;SDS011;42305;51.444;-2.584;2022-08-19T00:21:42;2.60;;;2.60;;
56405;SDS011;42305;51.444;-2.584;2022-08-19T00:24:09;2.60;;;2.60;;
56405;SDS011;42305;51.444;-2.584;2022-08-19T00:26:37;2.40;;;2.40;;
56405;SDS011;42305;51.444;-2.584;2022-08-19T00:29:04;3.83;;;2.13;;
56405;SDS011;42305;51.444;-2.584;2022-08-19T00:31:30;2.78;;;2.78;;
56405;SDS011;42305;51.444;-2.584;2022-08-19T00:33:56;2.70;;;2.70;;
56405;SDS011;42305;51.444;-2.584;2022-08-19T00:36:23;2.50;;;2.50;;
56405;SDS011;42305;51.444;-2.584;2022-08-19T00:38:50;2.42;;;2.42;;
56405;SDS011;42305;51.444;-2.584;2022-08-19T00:41:18;6.53;;;2.95;;
56405;SDS011;42305;51.444;-2.584;2022-08-19T00:49:17;2.40;;;2.40;;
56405;SDS011;42305;51.444;-2.584;2022-08-19T00:51:45;2.60;;;2.60;;
56405;SDS011;42305;51.444;-2.584;2022-08-19T00:54:11;2.30;;;2.30;;
56405;SDS011;42305;51.444;-2.584;2022-08-19T00:59:23;2.55;;;2.55;;
56405;SDS011;42305;51.444;-2.584;2022-08-19T01:01:49;2.10;;;2.10;;
56405;SDS011;42305;51.444;-2.584;2022-08-19T01:04:15;2.55;;;2.55;;
56405;SDS011;42305;51.444;-2.584;2022-08-19T01:06:42;2.72;;;2.72;;
56405;SDS011;42305;51.444;-2.584;2022-08-19T01:09:08;2.50;;;2.50;;
56405;SDS011;42305;51.444;-2.584;2022-08-19T01:11:35;2.58;;;2.58;;
56405;SDS011;42305;51.444;-2.584;2022-08-19T01:14:02;2.10;;;2.10;;
56405;SDS011;42305;51.444;-2.584;2022-08-19T01:16:29;2.50;;;2.50;;
56405;SDS011;42305;51.444;-2.584;2022-08-19T01:18:55;2.40;;;2.40;;
56405;SDS011;42305;51.444;-2.584;2022-08-19T01:23:50;2.60;;;2.60;;
56405;SDS011;42305;51.444;-2.584;2022-08-19T01:26:18;2.40;;;2.40;;
56405;SDS011;42305;51.444;-2.584;2022-08-19T01:28:44;2.65;;;2.65;;
56405;SDS011;42305;51.444;-2.584;2022-08-19T01:31:22;2.67;;;2.67;;
56405;SDS011;42305;51.444;-2.584;2022-08-19T01:33:48;2.60;;;2.60;;
56405;SDS011;42305;51.444;-2.584;2022-08-19T01:36:19;2.60;;;2.60;;
56405;SDS011;42305;51.444;-2.584;2022-08-19T01:38:47;2.67;;;2.67;;
56405;SDS011;42305;51.444;-2.584;2022-08-19T01:41:14;2.50;;;2.50;;
56405;SDS011;42305;51.444;-2.584;2022-08-19T01:43:41;2.40;;;2.40;;
56405;SDS011;42305;51.444;-2.584;2022-08-19T01:46:07;2.80;;;2.70;;
56405;SDS011;42305;51.444;-2.584;2022-08-19T01:48:37;2.40;;;2.40;;
56405;SDS011;42305;51.444;-2.584;2022-08-19T01:51:04;2.42;;;2.42;;
56405;SDS011;42305;51.444;-2.584;2022-08-19T01:53:30;2.17;;;2.17;;
56405;SDS011;42305;51.444;-2.584;2022-08-19T01:55:56;3.20;;;3.05;;
56405;SDS011;42305;51.444;-2.584;2022-08-19T02:00:54;2.00;;;2.00;;
56405;SDS011;42305;51.444;-2.584;2022-08-19T02:03:20;2.50;;;2.50;;
56405;SDS011;42305;51.444;-2.584;2022-08-19T02:05:46;3.30;;;3.20;;
56405;SDS011;42305;51.444;-2.584;2022-08-19T02:08:12;2.30;;;2.30;;
56405;SDS011;42305;51.444;-2.584;2022-08-19T02:10:39;2.50;;;2.50;;
56405;SDS011;42305;51.444;-2.584;2022-08-19T02:13:06;2.70;;;2.70;;
56405;SDS011;42305;51.444;-2.584;2022-08-19T02:15:32;2.60;;;2.60;;
56405;SDS011;42305;51.444;-2.584;2022-08-19T02:18:00;2.60;;;2.60;;
56405;SDS011;42305;51.444;-2.584;2022-08-19T02:20:26;2.50;;;2.50;;
56405;SDS011;42305;51.444;-2.584;2022-08-19T02:22:55;2.42;;;2.42;;
56405;SDS011;42305;51.444;-2.584;2022-08-19T02:25:21;2.60;;;2.60;;
56405;SDS011;42305;51.444;-2.584;2022-08-19T02:27:47;2.72;;;2.72;;
56405;SDS011;42305;51.444;-2.584;2022-08-19T02:30:15;2.58;;;2.58;;
56405;SDS011;42305;51.444;-2.584;2022-08-19T02:32:42;2.60;;;2.60;;
56405;SDS011;42305;51.444;-2.584;2022-08-19T02:35:08;2.63;;;2.63;;
56405;SDS011;42305;51.444;-2.584;2022-08-19T02:37:34;2.60;;;2.60;;
56405;SDS011;42305;51.444;-2.584;2022-08-19T02:40:19;2.70;;;2.70;;
56405;SDS011;42305;51.444;-2.584;2022-08-19T02:42:46;2.70;;;2.70;;
56405;SDS011;42305;51.444;-2.584;2022-08-19T02:45:12;2.17;;;2.17;;
56405;SDS011;42305;51.444;-2.584;2022-08-19T02:47:39;2.70;;;2.70;;
56405;SDS011;42305;51.444;-2.584;2022-08-19T02:50:05;2.60;;;2.60;;
56405;SDS011;42305;51.444;-2.584;2022-08-19T02:52:32;2.30;;;2.30;;
56405;SDS011;42305;51.444;-2.584;2022-08-19T02:54:58;2.40;;;2.40;;
56405;SDS011;42305;51.444;-2.584;2022-08-19T02:57:26;2.60;;;2.60;;
56405;SDS011;42305;51.444;-2.584;2022-08-19T02:59:52;2.42;;;2.42;;
56405;SDS011;42305;51.444;-2.584;2022-08-19T03:02:19;2.50;;;2.50;;
56405;SDS011;42305;51.444;-2.584;2022-08-19T03:04:45;2.17;;;2.17;;
56405;SDS011;42305;51.444;-2.584;2022-08-19T03:07:15;2.47;;;2.47;;
56405;SDS011;42305;51.444;-2.584;2022-08-19T03:09:42;2.55;;;2.55;;
56405;SDS011;42305;51.444;-2.584;2022-08-19T03:12:08;2.60;;;2.60;;
56405;SDS011;42305;51.444;-2.584;2022-08-19T03:14:35;2.90;;;2.80;;
56405;SDS011;42305;51.444;-2.584;2022-08-19T03:17:01;2.60;;;2.60;;
56405;SDS011;42305;51.444;-2.584;2022-08-19T03:19:28;2.53;;;2.53;;
56405;SDS011;42305;51.444;-2.584;2022-08-19T03:21:54;2.40;;;2.40;;
56405;SDS011;42305;51.444;-2.584;2022-08-19T03:24:20;2.58;;;2.58;;
56405;SDS011;42305;51.444;-2.584;2022-08-19T03:26:50;2.60;;;2.60;;
56405;SDS011;42305;51.444;-2.584;2022-08-19T03:29:16;2.60;;;2.60;;
56405;SDS011;42305;51.444;-2.584;2022-08-19T03:31:43;2.50;;;2.50;;
56405;SDS011;42305;51.444;-2.584;2022-08-19T03:34:10;2.50;;;2.50;;
56405;SDS011;42305;51.444;-2.584;2022-08-19T03:42:12;2.20;;;2.20;;
56405;SDS011;42305;51.444;-2.584;2022-08-19T03:44:38;2.80;;;2.80;;
56405;SDS011;42305;51.444;-2.584;2022-08-19T03:50:10;2.80;;;2.80;;
56405;SDS011;42305;51.444;-2.584;2022-08-19T03:52:36;2.30;;;2.30;;
56405;SDS011;42305;51.444;-2.584;2022-08-19T03:55:04;2.42;;;2.42;;
56405;SDS011;42305;51.444;-2.584;2022-08-19T03:57:32;2.80;;;2.80;;
56405;SDS011;42305;51.444;-2.584;2022-08-19T03:59:59;3.58;;;3.47;;
56405;SDS011;42305;51.444;-2.584;2022-08-19T04:02:25;3.63;;;3.53;;
56405;SDS011;42305;51.444;-2.584;2022-08-19T04:04:52;2.65;;;2.65;;
56405;SDS011;42305;51.444;-2.584;2022-08-19T04:10:25;2.88;;;2.88;;
56405;SDS011;42305;51.444;-2.584;2022-08-19T04:12:51;2.85;;;2.85;;
56405;SDS011;42305;51.444;-2.584;2022-08-19T04:15:17;2.90;;;2.90;;
56405;SDS011;42305;51.444;-2.584;2022-08-19T04:17:44;2.78;;;2.78;;
56405;SDS011;42305;51.444;-2.584;2022-08-19T04:20:10;2.78;;;2.78;;
56405;SDS011;42305;51.444;-2.584;2022-08-19T04:22:36;2.55;;;2.55;;
56405;SDS011;42305;51.444;-2.584;2022-08-19T04:25:02;3.00;;;3.00;;
56405;SDS011;42305;51.444;-2.584;2022-08-19T04:27:28;2.70;;;2.70;;
56405;SDS011;42305;51.444;-2.584;2022-08-19T04:29:56;2.67;;;2.67;;
56405;SDS011;42305;51.444;-2.584;2022-08-19T04:32:22;2.90;;;2.90;;
56405;SDS011;42305;51.444;-2.584;2022-08-19T04:34:48;2.90;;;2.90;;
56405;SDS011;42305;51.444;-2.584;2022-08-19T04:40:18;3.00;;;3.00;;
56405;SDS011;42305;51.444;-2.584;2022-08-19T04:43:03;3.17;;;3.17;;
56405;SDS011;42305;51.444;-2.584;2022-08-19T04:45:29;2.97;;;2.97;;
56405;SDS011;42305;51.444;-2.584;2022-08-19T04:47:55;2.90;;;2.90;;
56405;SDS011;42305;51.444;-2.584;2022-08-19T04:50:22;2.90;;;2.90;;
56405;SDS011;42305;51.444;-2.584;2022-08-19T04:52:49;3.00;;;3.00;;
56405;SDS011;42305;51.444;-2.584;2022-08-19T04:55:16;3.20;;;3.20;;
56405;SDS011;42305;51.444;-2.584;2022-08-19T04:57:45;2.80;;;2.80;;
56405;SDS011;42305;51.444;-2.584;2022-08-19T05:00:11;3.00;;;3.00;;
56405;SDS011;42305;51.444;-2.584;2022-08-19T05:02:38;3.00;;;3.00;;
56405;SDS011;42305;51.444;-2.584;2022-08-19T05:05:04;2.90;;;2.90;;
56405;SDS011;42305;51.444;-2.584;2022-08-19T05:10:17;3.00;;;3.00;;
56405;SDS011;42305;51.444;-2.584;2022-08-19T05:12:43;3.10;;;3.10;;
56405;SDS011;42305;51.444;-2.584;2022-08-19T05:15:09;2.90;;;2.90;;
56405;SDS011;42305;51.444;-2.584;2022-08-19T05:17:37;3.03;;;3.03;;
56405;SDS011;42305;51.444;-2.584;2022-08-19T05:20:23;3.08;;;3.08;;
56405;SDS011;42305;51.444;-2.584;2022-08-19T05:23:09;3.20;;;3.20;;
56405;SDS011;42305;51.444;-2.584;2022-08-19T05:25:38;3.20;;;3.20;;
56405;SDS011;42305;51.444;-2.584;2022-08-19T05:28:07;3.00;;;3.00;;
56405;SDS011;42305;51.444;-2.584;2022-08-19T05:30:33;3.00;;;3.00;;
56405;SDS011;42305;51.444;-2.584;2022-08-19T05:32:59;3.00;;;3.00;;
56405;SDS011;42305;51.444;-2.584;2022-08-19T05:35:25;3.30;;;3.30;;
56405;SDS011;42305;51.444;-2.584;2022-08-19T05:37:52;3.70;;;3.60;;
56405;SDS011;42305;51.444;-2.584;2022-08-19T05:40:19;3.28;;;3.28;;
56405;SDS011;42305;51.444;-2.584;2022-08-19T05:42:45;3.08;;;3.08;;
56405;SDS011;42305;51.444;-2.584;2022-08-19T05:45:11;2.92;;;2.92;;
56405;SDS011;42305;51.444;-2.584;2022-08-19T05:47:37;2.97;;;2.97;;
56405;SDS011;42305;51.444;-2.584;2022-08-19T05:50:03;3.30;;;3.30;;
56405;SDS011;42305;51.444;-2.584;2022-08-19T05:52:30;3.00;;;3.00;;
56405;SDS011;42305;51.444;-2.584;2022-08-19T05:54:56;3.20;;;3.20;;
56405;SDS011;42305;51.444;-2.584;2022-08-19T05:57:23;3.15;;;3.15;;
56405;SDS011;42305;51.444;-2.584;2022-08-19T05:59:50;3.20;;;3.20;;
56405;SDS011;42305;51.444;-2.584;2022-08-19T06:02:16;3.35;;;3.30;;
56405;SDS011;42305;51.444;-2.584;2022-08-19T06:04:42;3.50;;;3.40;;
56405;SDS011;42305;51.444;-2.584;2022-08-19T06:07:09;3.00;;;3.00;;
56405;SDS011;42305;51.444;-2.584;2022-08-19T06:09:35;3.03;;;3.03;;
56405;SDS011;42305;51.444;-2.584;2022-08-19T06:12:02;5.78;;;5.57;;
56405;SDS011;42305;51.444;-2.584;2022-08-19T06:14:30;3.72;;;3.63;;
56405;SDS011;42305;51.444;-2.584;2022-08-19T06:20:00;3.65;;;3.55;;
56405;SDS011;42305;51.444;-2.584;2022-08-19T06:25:12;3.35;;;3.30;;
56405;SDS011;42305;51.444;-2.584;2022-08-19T06:27:40;3.50;;;3.40;;
56405;SDS011;42305;51.444;-2.584;2022-08-19T06:30:07;2.92;;;2.92;;
56405;SDS011;42305;51.444;-2.584;2022-08-19T06:32:33;3.03;;;3.03;;
56405;SDS011;42305;51.444;-2.584;2022-08-19T06:34:59;2.60;;;2.60;;
56405;SDS011;42305;51.444;-2.584;2022-08-19T06:40:12;3.85;;;3.75;;
56405;SDS011;42305;51.444;-2.584;2022-08-19T06:42:38;6.18;;;3.50;;
56405;SDS011;42305;51.444;-2.584;2022-08-19T06:45:05;3.20;;;3.20;;
56405;SDS011;42305;51.444;-2.584;2022-08-19T06:47:35;2.97;;;2.97;;
56405;SDS011;42305;51.444;-2.584;2022-08-19T06:50:01;3.10;;;3.10;;
56405;SDS011;42305;51.444;-2.584;2022-08-19T06:52:29;3.50;;;3.40;;
56405;SDS011;42305;51.444;-2.584;2022-08-19T06:54:56;4.03;;;3.92;;
56405;SDS011;42305;51.444;-2.584;2022-08-19T06:57:23;4.55;;;4.18;;
56405;SDS011;42305;51.444;-2.584;2022-08-19T06:59:50;2.85;;;2.85;;
56405;SDS011;42305;51.444;-2.584;2022-08-19T07:02:16;3.10;;;3.10;;
56405;SDS011;42305;51.444;-2.584;2022-08-19T07:04:42;8.13;;;5.03;;
56405;SDS011;42305;51.444;-2.584;2022-08-19T07:07:09;3.30;;;3.22;;
56405;SDS011;42305;51.444;-2.584;2022-08-19T07:09:37;3.55;;;3.45;;
56405;SDS011;42305;51.444;-2.584;2022-08-19T07:12:05;2.72;;;2.72;;
56405;SDS011;42305;51.444;-2.584;2022-08-19T07:14:31;4.55;;;3.60;;
56405;SDS011;42305;51.444;-2.584;2022-08-19T07:16:57;2.60;;;2.60;;
56405;SDS011;42305;51.444;-2.584;2022-08-19T07:19:24;9.20;;;4.55;;
56405;SDS011;42305;51.444;-2.584;2022-08-19T07:21:54;17.33;;;4.80;;
56405;SDS011;42305;51.444;-2.584;2022-08-19T07:24:21;3.20;;;3.20;;
56405;SDS011;42305;51.444;-2.584;2022-08-19T07:26:49;2.95;;;2.95;;
56405;SDS011;42305;51.444;-2.584;2022-08-19T07:29:16;3.38;;;3.28;;
56405;SDS011;42305;51.444;-2.584;2022-08-19T07:31:42;3.95;;;3.75;;
56405;SDS011;42305;51.444;-2.584;2022-08-19T07:34:10;4.50;;;3.50;;
56405;SDS011;42305;51.444;-2.584;2022-08-19T07:36:38;4.13;;;3.92;;
56405;SDS011;42305;51.444;-2.584;2022-08-19T07:39:07;3.40;;;3.22;;
56405;SDS011;42305;51.444;-2.584;2022-08-19T07:41:34;3.00;;;3.00;;
56405;SDS011;42305;51.444;-2.584;2022-08-19T07:44:01;2.92;;;2.90;;
56405;SDS011;42305;51.444;-2.584;2022-08-19T07:48:58;3.13;;;3.10;;
56405;SDS011;42305;51.444;-2.584;2022-08-19T07:51:25;7.18;;;3.95;;
56405;SDS011;42305;51.444;-2.584;2022-08-19T07:53:52;3.63;;;3.53;;
56405;SDS011;42305;51.444;-2.584;2022-08-19T07:56:19;3.95;;;3.83;;
56405;SDS011;42305;51.444;-2.584;2022-08-19T07:58:46;3.00;;;3.00;;
56405;SDS011;42305;51.444;-2.584;2022-08-19T08:01:13;2.88;;;2.88;;
56405;SDS011;42305;51.444;-2.584;2022-08-19T08:03:40;2.90;;;2.90;;
56405;SDS011;42305;51.444;-2.584;2022-08-19T08:09:30;3.67;;;3.58;;
56405;SDS011;42305;51.444;-2.584;2022-08-19T08:11:58;6.60;;;3.38;;
56405;SDS011;42305;51.444;-2.584;2022-08-19T08:14:32;3.72;;;3.63;;
56405;SDS011;42305;51.444;-2.584;2022-08-19T08:17:01;3.53;;;3.42;;
56405;SDS011;42305;51.444;-2.584;2022-08-19T08:19:27;2.80;;;2.80;;
56405;SDS011;42305;51.444;-2.584;2022-08-19T08:21:55;2.70;;;2.70;;
56405;SDS011;42305;51.444;-2.584;2022-08-19T08:24:21;2.60;;;2.60;;
56405;SDS011;42305;51.444;-2.584;2022-08-19T08:32:39;2.85;;;2.85;;
56405;SDS011;42305;51.444;-2.584;2022-08-19T08:35:06;2.80;;;2.80;;
56405;SDS011;42305;51.444;-2.584;2022-08-19T08:37:35;2.83;;;2.83;;
56405;SDS011;42305;51.444;-2.584;2022-08-19T08:40:05;2.40;;;2.35;;
56405;SDS011;42305;51.444;-2.584;2022-08-19T08:42:34;2.65;;;2.65;;
56405;SDS011;42305;51.444;-2.584;2022-08-19T08:45:19;2.40;;;2.40;;
56405;SDS011;42305;51.444;-2.584;2022-08-19T08:47:48;4.38;;;2.60;;
56405;SDS011;42305;51.444;-2.584;2022-08-19T08:50:39;2.80;;;2.80;;
56405;SDS011;42305;51.444;-2.584;2022-08-19T08:53:02;2.95;;;2.95;;
56405;SDS011;42305;51.444;-2.584;2022-08-19T08:55:31;3.92;;;3.70;;
56405;SDS011;42305;51.444;-2.584;2022-08-19T08:58:02;2.42;;;2.40;;
56405;SDS011;42305;51.444;-2.584;2022-08-19T09:00:30;29.38;;;3.60;;
56405;SDS011;42305;51.444;-2.584;2022-08-19T09:02:58;2.80;;;2.80;;
56405;SDS011;42305;51.444;-2.584;2022-08-19T09:05:30;2.25;;;2.25;;
56405;SDS011;42305;51.444;-2.584;2022-08-19T09:10:58;2.30;;;2.30;;
56405;SDS011;42305;51.444;-2.584;2022-08-19T09:16:12;1.90;;;1.90;;
56405;SDS011;42305;51.444;-2.584;2022-08-19T09:21:06;1.77;;;1.77;;
56405;SDS011;42305;51.444;-2.584;2022-08-19T09:23:34;3.08;;;2.97;;
56405;SDS011;42305;51.444;-2.584;2022-08-19T09:26:00;2.80;;;2.80;;
56405;SDS011;42305;51.444;-2.584;2022-08-19T09:28:27;4.05;;;2.50;;
56405;SDS011;42305;51.444;-2.584;2022-08-19T09:30:54;19.63;;;2.60;;
56405;SDS011;42305;51.444;-2.584;2022-08-19T09:33:20;3.65;;;2.75;;
56405;SDS011;42305;51.444;-2.584;2022-08-19T09:35:47;2.20;;;2.00;;
56405;SDS011;42305;51.444;-2.584;2022-08-19T09:38:14;15.93;;;2.85;;
56405;SDS011;42305;51.444;-2.584;2022-08-19T09:40:40;3.22;;;3.03;;
56405;SDS011;42305;51.444;-2.584;2022-08-19T09:43:06;2.38;;;1.85;;
56405;SDS011;42305;51.444;-2.584;2022-08-19T09:45:33;2.20;;;2.20;;
56405;SDS011;42305;51.444;-2.584;2022-08-19T09:50:46;2.15;;;2.15;;
56405;SDS011;42305;51.444;-2.584;2022-08-19T09:53:12;2.20;;;2.20;;
56405;SDS011;42305;51.444;-2.584;2022-08-19T09:55:42;1.80;;;1.80;;
56405;SDS011;42305;51.444;-2.584;2022-08-19T10:00:55;1.60;;;1.60;;
56405;SDS011;42305;51.444;-2.584;2022-08-19T10:03:22;2.40;;;2.20;;
56405;SDS011;42305;51.444;-2.584;2022-08-19T10:05:48;1.50;;;1.50;;
56405;SDS011;42305;51.444;-2.584;2022-08-19T10:11:00;4.90;;;2.85;;
56405;SDS011;42305;51.444;-2.584;2022-08-19T10:13:27;3.20;;;3.00;;
56405;SDS011;42305;51.444;-2.584;2022-08-19T10:15:54;4.93;;;4.57;;
56405;SDS011;42305;51.444;-2.584;2022-08-19T10:21:29;2.08;;;2.08;;
56405;SDS011;42305;51.444;-2.584;2022-08-19T10:23:58;2.72;;;2.63;;
56405;SDS011;42305;51.444;-2.584;2022-08-19T10:29:13;5.28;;;2.15;;
56405;SDS011;42305;51.444;-2.584;2022-08-19T10:31:41;1.90;;;1.90;;
56405;SDS011;42305;51.444;-2.584;2022-08-19T10:34:07;2.75;;;2.47;;
56405;SDS011;42305;51.444;-2.584;2022-08-19T10:39:21;2.10;;;2.10;;
56405;SDS011;42305;51.444;-2.584;2022-08-19T10:41:47;2.00;;;2.00;;
56405;SDS011;42305;51.444;-2.584;2022-08-19T10:44:13;1.40;;;1.40;;
56405;SDS011;42305;51.444;-2.584;2022-08-19T10:46:42;2.00;;;2.00;;
56405;SDS011;42305;51.444;-2.584;2022-08-19T10:49:10;1.88;;;1.88;;
56405;SDS011;42305;51.444;-2.584;2022-08-19T10:51:37;1.92;;;1.92;;
56405;SDS011;42305;51.444;-2.584;2022-08-19T10:54:21;3.22;;;3.03;;
56405;SDS011;42305;51.444;-2.584;2022-08-19T10:56:49;1.65;;;1.65;;
56405;SDS011;42305;51.444;-2.584;2022-08-19T10:59:21;1.80;;;1.80;;
56405;SDS011;42305;51.444;-2.584;2022-08-19T11:01:47;1.40;;;1.40;;
56405;SDS011;42305;51.444;-2.584;2022-08-19T11:04:14;1.90;;;1.90;;
56405;SDS011;42305;51.444;-2.584;2022-08-19T11:09:29;5.57;;;4.15;;
56405;SDS011;42305;51.444;-2.584;2022-08-19T11:11:56;1.70;;;1.70;;
56405;SDS011;42305;51.444;-2.584;2022-08-19T11:14:22;1.60;;;1.60;;
56405;SDS011;42305;51.444;-2.584;2022-08-19T11:16:51;3.80;;;1.98;;
56405;SDS011;42305;51.444;-2.584;2022-08-19T11:19:20;2.30;;;2.15;;
56405;SDS011;42305;51.444;-2.584;2022-08-19T11:21:48;1.80;;;1.80;;
56405;SDS011;42305;51.444;-2.584;2022-08-19T11:24:19;1.80;;;1.80;;
56405;SDS011;42305;51.444;-2.584;2022-08-19T11:26:46;1.30;;;1.30;;
56405;SDS011;42305;51.444;-2.584;2022-08-19T11:29:14;1.40;;;1.40;;
56405;SDS011;42305;51.444;-2.584;2022-08-19T11:31:41;5.97;;;2.05;;
56405;SDS011;42305;51.444;-2.584;2022-08-19T11:34:09;1.45;;;1.45;;
56405;SDS011;42305;51.444;-2.584;2022-08-19T11:36:37;1.77;;;1.60;;
56405;SDS011;42305;51.444;-2.584;2022-08-19T11:39:04;2.03;;;1.92;;
56405;SDS011;42305;51.444;-2.584;2022-08-19T11:41:30;1.40;;;1.40;;
56405;SDS011;42305;51.444;-2.584;2022-08-19T11:43:56;2.95;;;2.00;;
56405;SDS011;42305;51.444;-2.584;2022-08-19T11:46:23;1.95;;;1.85;;
56405;SDS011;42305;51.444;-2.584;2022-08-19T11:48:49;2.38;;;1.70;;
56405;SDS011;42305;51.444;-2.584;2022-08-19T11:51:17;1.10;;;1.10;;
56405;SDS011;42305;51.444;-2.584;2022-08-19T11:53:44;1.20;;;1.20;;
56405;SDS011;42305;51.444;-2.584;2022-08-19T11:56:10;1.10;;;1.10;;
56405;SDS011;42305;51.444;-2.584;2022-08-19T11:58:37;1.30;;;1.30;;
56405;SDS011;42305;51.444;-2.584;2022-08-19T12:01:07;1.67;;;1.67;;
56405;SDS011;42305;51.444;-2.584;2022-08-19T12:03:34;1.20;;;1.20;;
56405;SDS011;42305;51.444;-2.584;2022-08-19T12:06:07;1.38;;;1.38;;
56405;SDS011;42305;51.444;-2.584;2022-08-19T12:11:37;1.02;;;1.02;;
56405;SDS011;42305;51.444;-2.584;2022-08-19T12:14:03;1.13;;;1.10;;
56405;SDS011;42305;51.444;-2.584;2022-08-19T12:16:31;1.20;;;1.20;;
56405;SDS011;42305;51.444;-2.584;2022-08-19T12:18:58;1.50;;;1.50;;
56405;SDS011;42305;51.444;-2.584;2022-08-19T12:21:28;6.07;;;2.28;;
56405;SDS011;42305;51.444;-2.584;2022-08-19T12:23:55;1.10;;;1.10;;
56405;SDS011;42305;51.444;-2.584;2022-08-19T12:26:22;2.25;;;2.15;;
56405;SDS011;42305;51.444;-2.584;2022-08-19T12:28:49;1.00;;;1.00;;
56405;SDS011;42305;51.444;-2.584;2022-08-19T12:31:15;5.35;;;1.80;;
56405;SDS011;42305;51.444;-2.584;2022-08-19T12:33:42;2.63;;;1.13;;
56405;SDS011;42305;51.444;-2.584;2022-08-19T12:36:09;1.75;;;1.00;;
56405;SDS011;42305;51.444;-2.584;2022-08-19T12:41:40;1.15;;;1.15;;
56405;SDS011;42305;51.444;-2.584;2022-08-19T12:44:06;4.13;;;1.02;;
56405;SDS011;42305;51.444;-2.584;2022-08-19T12:49:17;4.78;;;2.08;;
56405;SDS011;42305;51.444;-2.584;2022-08-19T12:51:44;0.75;;;0.60;;
56405;SDS011;42305;51.444;-2.584;2022-08-19T12:54:11;4.22;;;1.55;;
56405;SDS011;42305;51.444;-2.584;2022-08-19T13:01:36;0.40;;;0.40;;
56405;SDS011;42305;51.444;-2.584;2022-08-19T13:04:03;0.40;;;0.40;;
56405;SDS011;42305;51.444;-2.584;2022-08-19T13:12:36;3.33;;;2.42;;
56405;SDS011;42305;51.444;-2.584;2022-08-19T13:15:02;0.40;;;0.40;;
56405;SDS011;42305;51.444;-2.584;2022-08-19T13:17:29;1.67;;;0.65;;
56405;SDS011;42305;51.444;-2.584;2022-08-19T13:19:55;0.40;;;0.40;;
56405;SDS011;42305;51.444;-2.584;2022-08-19T13:22:21;0.80;;;0.52;;
56405;SDS011;42305;51.444;-2.584;2022-08-19T13:24:47;2.92;;;1.42;;
56405;SDS011;42305;51.444;-2.584;2022-08-19T13:27:15;0.70;;;0.70;;
56405;SDS011;42305;51.444;-2.584;2022-08-19T13:29:42;1.05;;;1.05;;
56405;SDS011;42305;51.444;-2.584;2022-08-19T13:32:26;1.60;;;1.13;;
56405;SDS011;42305;51.444;-2.584;2022-08-19T13:35:12;1.20;;;1.13;;
56405;SDS011;42305;51.444;-2.584;2022-08-19T13:43:12;2.03;;;1.30;;
56405;SDS011;42305;51.444;-2.584;2022-08-19T13:45:39;0.50;;;0.50;;
56405;SDS011;42305;51.444;-2.584;2022-08-19T13:51:09;0.60;;;0.60;;
56405;SDS011;42305;51.444;-2.584;2022-08-19T13:53:36;6.45;;;1.02;;
56405;SDS011;42305;51.444;-2.584;2022-08-19T13:56:08;0.57;;;0.43;;
56405;SDS011;42305;51.444;-2.584;2022-08-19T13:58:36;0.60;;;0.60;;
56405;SDS011;42305;51.444;-2.584;2022-08-19T14:01:02;0.80;;;0.80;;
56405;SDS011;42305;51.444;-2.584;2022-08-19T14:03:29;4.88;;;1.20;;
56405;SDS011;42305;51.444;-2.584;2022-08-19T14:05:55;0.82;;;0.82;;
56405;SDS011;42305;51.444;-2.584;2022-08-19T14:11:25;1.30;;;1.20;;
56405;SDS011;42305;51.444;-2.584;2022-08-19T14:13:52;1.05;;;1.05;;
56405;SDS011;42305;51.444;-2.584;2022-08-19T14:16:19;1.00;;;1.00;;
56405;SDS011;42305;51.444;-2.584;2022-08-19T14:18:46;0.75;;;0.70;;
56405;SDS011;42305;51.444;-2.584;2022-08-19T14:21:16;2.03;;;1.10;;
56405;SDS011;42305;51.444;-2.584;2022-08-19T14:23:43;0.60;;;0.60;;
56405;SDS011;42305;51.444;-2.584;2022-08-19T14:26:11;0.60;;;0.60;;
56405;SDS011;42305;51.444;-2.584;2022-08-19T14:28:39;0.70;;;0.70;;
56405;SDS011;42305;51.444;-2.584;2022-08-19T14:31:06;0.38;;;0.38;;
56405;SDS011;42305;51.444;-2.584;2022-08-19T14:33:33;0.40;;;0.40;;
56405;SDS011;42305;51.444;-2.584;2022-08-19T14:35:59;0.60;;;0.60;;
56405;SDS011;42305;51.444;-2.584;2022-08-19T14:38:25;5.78;;;0.68;;
56405;SDS011;42305;51.444;-2.584;2022-08-19T14:40:51;0.50;;;0.50;;
56405;SDS011;42305;51.444;-2.584;2022-08-19T14:43:18;0.30;;;0.30;;
56405;SDS011;42305;51.444;-2.584;2022-08-19T14:45:44;0.20;;;0.20;;
56405;SDS011;42305;51.444;-2.584;2022-08-19T14:48:10;0.30;;;0.30;;
56405;SDS011;42305;51.444;-2.584;2022-08-19T14:50:37;0.60;;;0.60;;
56405;SDS011;42305;51.444;-2.584;2022-08-19T14:53:05;0.30;;;0.30;;
56405;SDS011;42305;51.444;-2.584;2022-08-19T14:55:32;0.20;;;0.20;;
56405;SDS011;42305;51.444;-2.584;2022-08-19T14:57:58;0.20;;;0.20;;
56405;SDS011;42305;51.444;-2.584;2022-08-19T15:00:25;0.70;;;0.30;;
56405;SDS011;42305;51.444;-2.584;2022-08-19T15:02:51;0.52;;;0.52;;
56405;SDS011;42305;51.444;-2.584;2022-08-19T15:05:19;2.83;;;0.43;;
56405;SDS011;42305;51.444;-2.584;2022-08-19T15:10:49;1.85;;;0.60;;
56405;SDS011;42305;51.444;-2.584;2022-08-19T15:13:15;0.32;;;0.32;;
56405;SDS011;42305;51.444;-2.584;2022-08-19T15:15:41;0.20;;;0.20;;
56405;SDS011;42305;51.444;-2.584;2022-08-19T15:20:54;0.40;;;0.40;;
56405;SDS011;42305;51.444;-2.584;2022-08-19T15:23:20;0.90;;;0.90;;
56405;SDS011;42305;51.444;-2.584;2022-08-19T15:25:46;0.77;;;0.28;;
56405;SDS011;42305;51.444;-2.584;2022-08-19T15:31:18;0.17;;;0.17;;
56405;SDS011;42305;51.444;-2.584;2022-08-19T15:36:48;0.15;;;0.15;;
56405;SDS011;42305;51.444;-2.584;2022-08-19T15:39:14;0.20;;;0.20;;
56405;SDS011;42305;51.444;-2.584;2022-08-19T15:41:41;0.30;;;0.30;;
56405;SDS011;42305;51.444;-2.584;2022-08-19T15:44:11;0.50;;;0.43;;
56405;SDS011;42305;51.444;-2.584;2022-08-19T15:46:40;0.93;;;0.93;;
56405;SDS011;42305;51.444;-2.584;2022-08-19T15:49:08;0.77;;;0.77;;
56405;SDS011;42305;51.444;-2.584;2022-08-19T15:51:34;1.75;;;0.75;;
56405;SDS011;42305;51.444;-2.584;2022-08-19T15:54:02;3.25;;;1.25;;
56405;SDS011;42305;51.444;-2.584;2022-08-19T15:59:32;1.10;;;1.10;;
56405;SDS011;42305;51.444;-2.584;2022-08-19T16:02:18;35.28;;;2.92;;
56405;SDS011;42305;51.444;-2.584;2022-08-19T16:05:15;1.05;;;1.05;;
56405;SDS011;42305;51.444;-2.584;2022-08-19T16:10:29;3.78;;;2.15;;
56405;SDS011;42305;51.444;-2.584;2022-08-19T16:12:56;1.48;;;1.48;;
56405;SDS011;42305;51.444;-2.584;2022-08-19T16:15:24;7.53;;;1.90;;
56405;SDS011;42305;51.444;-2.584;2022-08-19T16:20:55;1.65;;;1.55;;
56405;SDS011;42305;51.444;-2.584;2022-08-19T16:23:21;1.80;;;1.80;;
56405;SDS011;42305;51.444;-2.584;2022-08-19T16:25:47;1.50;;;1.50;;
56405;SDS011;42305;51.444;-2.584;2022-08-19T16:28:15;2.80;;;2.60;;
56405;SDS011;42305;51.444;-2.584;2022-08-19T16:30:41;1.45;;;1.45;;
56405;SDS011;42305;51.444;-2.584;2022-08-19T16:33:07;14.55;;;5.90;;
56405;SDS011;42305;51.444;-2.584;2022-08-19T16:35:33;1.50;;;1.50;;
56405;SDS011;42305;51.444;-2.584;2022-08-19T16:38:00;1.75;;;1.75;;
56405;SDS011;42305;51.444;-2.584;2022-08-19T16:40:27;1.60;;;1.60;;
56405;SDS011;42305;51.444;-2.584;2022-08-19T16:42:53;1.70;;;1.70;;
56405;SDS011;42305;51.444;-2.584;2022-08-19T16:45:20;1.60;;;1.60;;
56405;SDS011;42305;51.444;-2.584;2022-08-19T16:47:46;1.70;;;1.70;;
56405;SDS011;42305;51.444;-2.584;2022-08-19T16:50:12;1.33;;;1.33;;